sensor_id;sensor_type;location;lat;lon;timestamp;temperature;humidity
2260;DHT22;333;48.800;9.530;2023-12-20T00:01:36;6.40;99.60
2260;DHT22;333;48.800;9.530;2023-12-20T00:04:03;6.30;99.60
2260;DHT22;333;48.800;9.530;2023-12-20T00:06:31;6.30;99.60
2260;DHT22;333;48.800;9.530;2023-12-20T00:08:58;6.20;99.60
2260;DHT22;333;48.800;9.530;2023-12-20T00:11:25;6.00;99.60
2260;DHT22;333;48.800;9.530;2023-12-20T00:13:53;6.20;99.60
2260;DHT22;333;48.800;9.530;2023-12-20T00:16:20;6.20;99.60
2260;DHT22;333;48.800;9.530;2023-12-20T00:18:47;6.20;99.60
2260;DHT22;333;48.800;9.530;2023-12-20T00:21:14;6.20;99.60
2260;DHT22;333;48.800;9.530;2023-12-20T00:23:41;6.20;99.60
2260;DHT22;333;48.800;9.530;2023-12-20T00:26:08;6.30;99.60
2260;DHT22;333;48.800;9.530;2023-12-20T00:28:35;6.20;99.60
2260;DHT22;333;48.800;9.530;2023-12-20T00:31:04;6.20;99.60
2260;DHT22;333;48.800;9.530;2023-12-20T00:33:30;6.30;99.60
2260;DHT22;333;48.800;9.530;2023-12-20T00:35:57;6.20;99.60
2260;DHT22;333;48.800;9.530;2023-12-20T00:38:25;6.30;99.60
2260;DHT22;333;48.800;9.530;2023-12-20T00:40:52;6.20;99.60
2260;DHT22;333;48.800;9.530;2023-12-20T00:43:18;6.10;99.60
2260;DHT22;333;48.800;9.530;2023-12-20T00:45:46;6.10;99.60
2260;DHT22;333;48.800;9.530;2023-12-20T00:48:14;6.10;99.60
2260;DHT22;333;48.800;9.530;2023-12-20T00:50:41;6.00;99.60
2260;DHT22;333;48.800;9.530;2023-12-20T00:53:08;6.10;99.60
2260;DHT22;333;48.800;9.530;2023-12-20T00:55:35;6.10;99.60
2260;DHT22;333;48.800;9.530;2023-12-20T00:58:02;6.30;99.60
2260;DHT22;333;48.800;9.530;2023-12-20T01:00:29;6.20;99.60
2260;DHT22;333;48.800;9.530;2023-12-20T01:02:56;6.00;99.60
2260;DHT22;333;48.800;9.530;2023-12-20T01:05:25;6.00;99.60
2260;DHT22;333;48.800;9.530;2023-12-20T01:07:52;6.10;99.60
2260;DHT22;333;48.800;9.530;2023-12-20T01:10:19;6.00;99.60
2260;DHT22;333;48.800;9.530;2023-12-20T01:12:46;6.00;99.60
2260;DHT22;333;48.800;9.530;2023-12-20T01:15:12;6.00;99.60
2260;DHT22;333;48.800;9.530;2023-12-20T01:17:39;5.90;99.60
2260;DHT22;333;48.800;9.530;2023-12-20T01:20:07;5.90;99.60
2260;DHT22;333;48.800;9.530;2023-12-20T01:22:36;5.80;99.60
2260;DHT22;333;48.800;9.530;2023-12-20T01:25:03;5.80;99.60
2260;DHT22;333;48.800;9.530;2023-12-20T01:27:30;5.90;99.60
2260;DHT22;333;48.800;9.530;2023-12-20T01:29:57;6.00;99.60
2260;DHT22;333;48.800;9.530;2023-12-20T01:32:24;6.00;99.60
2260;DHT22;333;48.800;9.530;2023-12-20T01:34:51;6.00;99.60
2260;DHT22;333;48.800;9.530;2023-12-20T01:37:18;6.10;99.60
2260;DHT22;333;48.800;9.530;2023-12-20T01:39:46;6.10;99.60
2260;DHT22;333;48.800;9.530;2023-12-20T01:42:14;6.10;99.60
2260;DHT22;333;48.800;9.530;2023-12-20T01:44:40;6.10;99.60
2260;DHT22;333;48.800;9.530;2023-12-20T01:47:08;6.10;99.60
2260;DHT22;333;48.800;9.530;2023-12-20T01:49:35;6.20;99.60
2260;DHT22;333;48.800;9.530;2023-12-20T01:52:03;6.10;99.60
2260;DHT22;333;48.800;9.530;2023-12-20T01:54:30;6.10;99.60
2260;DHT22;333;48.800;9.530;2023-12-20T01:56:59;6.10;99.60
2260;DHT22;333;48.800;9.530;2023-12-20T01:59:26;6.10;99.60
2260;DHT22;333;48.800;9.530;2023-12-20T02:01:55;6.10;99.60
2260;DHT22;333;48.800;9.530;2023-12-20T02:04:22;6.10;99.60
2260;DHT22;333;48.800;9.530;2023-12-20T02:07:08;6.10;99.60
2260;DHT22;333;48.800;9.530;2023-12-20T02:09:35;6.10;99.60
2260;DHT22;333;48.800;9.530;2023-12-20T02:12:05;6.10;99.60
2260;DHT22;333;48.800;9.530;2023-12-20T02:14:40;6.10;99.60
2260;DHT22;333;48.800;9.530;2023-12-20T02:17:07;6.10;99.60
2260;DHT22;333;48.800;9.530;2023-12-20T02:19:34;6.00;99.60
2260;DHT22;333;48.800;9.530;2023-12-20T02:22:10;6.10;99.60
2260;DHT22;333;48.800;9.530;2023-12-20T02:24:37;6.10;99.60
2260;DHT22;333;48.800;9.530;2023-12-20T02:27:06;6.20;99.60
2260;DHT22;333;48.800;9.530;2023-12-20T02:29:33;6.20;99.60
2260;DHT22;333;48.800;9.530;2023-12-20T02:32:00;6.10;99.60
2260;DHT22;333;48.800;9.530;2023-12-20T02:34:28;6.10;99.60
2260;DHT22;333;48.800;9.530;2023-12-20T02:36:55;6.20;99.60
2260;DHT22;333;48.800;9.530;2023-12-20T02:39:23;6.20;99.60
2260;DHT22;333;48.800;9.530;2023-12-20T02:41:50;6.10;99.60
2260;DHT22;333;48.800;9.530;2023-12-20T02:44:17;6.10;99.60
2260;DHT22;333;48.800;9.530;2023-12-20T02:46:44;6.10;99.60
2260;DHT22;333;48.800;9.530;2023-12-20T02:49:11;6.10;99.60
2260;DHT22;333;48.800;9.530;2023-12-20T02:51:38;6.10;99.60
2260;DHT22;333;48.800;9.530;2023-12-20T02:54:05;6.10;99.60
2260;DHT22;333;48.800;9.530;2023-12-20T02:56:34;6.10;99.60
2260;DHT22;333;48.800;9.530;2023-12-20T02:59:01;6.00;99.60
2260;DHT22;333;48.800;9.530;2023-12-20T03:01:31;6.00;99.60
2260;DHT22;333;48.800;9.530;2023-12-20T03:03:58;6.10;99.60
2260;DHT22;333;48.800;9.530;2023-12-20T03:06:25;6.00;99.60
2260;DHT22;333;48.800;9.530;2023-12-20T03:08:52;6.10;99.60
2260;DHT22;333;48.800;9.530;2023-12-20T03:11:19;6.10;99.60
2260;DHT22;333;48.800;9.530;2023-12-20T03:13:47;6.00;99.60
2260;DHT22;333;48.800;9.530;2023-12-20T03:16:14;6.00;99.60
2260;DHT22;333;48.800;9.530;2023-12-20T03:18:42;6.10;99.60
2260;DHT22;333;48.800;9.530;2023-12-20T03:21:09;6.10;99.60
2260;DHT22;333;48.800;9.530;2023-12-20T03:23:36;6.10;99.60
2260;DHT22;333;48.800;9.530;2023-12-20T03:26:05;6.10;99.60
2260;DHT22;333;48.800;9.530;2023-12-20T03:28:33;6.10;99.60
2260;DHT22;333;48.800;9.530;2023-12-20T03:31:01;6.00;99.60
2260;DHT22;333;48.800;9.530;2023-12-20T03:33:29;6.00;99.60
2260;DHT22;333;48.800;9.530;2023-12-20T03:35:56;6.10;99.60
2260;DHT22;333;48.800;9.530;2023-12-20T03:38:23;6.10;99.60
2260;DHT22;333;48.800;9.530;2023-12-20T03:40:50;6.00;99.60
2260;DHT22;333;48.800;9.530;2023-12-20T03:43:20;6.10;99.60
2260;DHT22;333;48.800;9.530;2023-12-20T03:45:47;6.00;99.60
2260;DHT22;333;48.800;9.530;2023-12-20T03:48:16;6.00;99.60
2260;DHT22;333;48.800;9.530;2023-12-20T03:50:43;6.00;99.60
2260;DHT22;333;48.800;9.530;2023-12-20T03:53:10;6.00;99.60
2260;DHT22;333;48.800;9.530;2023-12-20T03:55:37;6.10;99.60
2260;DHT22;333;48.800;9.530;2023-12-20T03:58:04;6.00;99.60
2260;DHT22;333;48.800;9.530;2023-12-20T04:00:31;6.00;99.60
2260;DHT22;333;48.800;9.530;2023-12-20T04:02:58;6.10;99.60
2260;DHT22;333;48.800;9.530;2023-12-20T04:05:27;6.10;99.60
2260;DHT22;333;48.800;9.530;2023-12-20T04:07:54;6.10;99.60
2260;DHT22;333;48.800;9.530;2023-12-20T04:10:21;6.10;99.60
2260;DHT22;333;48.800;9.530;2023-12-20T04:12:48;6.10;99.60
2260;DHT22;333;48.800;9.530;2023-12-20T04:15:15;6.00;99.60
2260;DHT22;333;48.800;9.530;2023-12-20T04:17:42;6.00;99.60
2260;DHT22;333;48.800;9.530;2023-12-20T04:20:10;6.00;99.60
2260;DHT22;333;48.800;9.530;2023-12-20T04:22:38;6.00;99.60
2260;DHT22;333;48.800;9.530;2023-12-20T04:25:05;6.00;99.60
2260;DHT22;333;48.800;9.530;2023-12-20T04:27:33;6.00;99.60
2260;DHT22;333;48.800;9.530;2023-12-20T04:30:00;6.00;99.60
2260;DHT22;333;48.800;9.530;2023-12-20T04:32:27;5.90;99.60
2260;DHT22;333;48.800;9.530;2023-12-20T04:34:54;5.90;99.60
2260;DHT22;333;48.800;9.530;2023-12-20T04:37:21;6.00;99.60
2260;DHT22;333;48.800;9.530;2023-12-20T04:39:49;5.90;99.60
2260;DHT22;333;48.800;9.530;2023-12-20T04:42:16;5.90;99.60
2260;DHT22;333;48.800;9.530;2023-12-20T04:44:43;5.90;99.60
2260;DHT22;333;48.800;9.530;2023-12-20T04:47:10;5.90;99.60
2260;DHT22;333;48.800;9.530;2023-12-20T04:49:37;6.00;99.60
2260;DHT22;333;48.800;9.530;2023-12-20T04:52:05;5.90;99.60
2260;DHT22;333;48.800;9.530;2023-12-20T04:54:32;5.90;99.60
2260;DHT22;333;48.800;9.530;2023-12-20T04:57:01;5.90;99.60
2260;DHT22;333;48.800;9.530;2023-12-20T04:59:27;5.90;99.60
2260;DHT22;333;48.800;9.530;2023-12-20T05:01:55;5.90;99.60
2260;DHT22;333;48.800;9.530;2023-12-20T05:04:23;5.80;99.60
2260;DHT22;333;48.800;9.530;2023-12-20T05:06:50;5.80;99.60
2260;DHT22;333;48.800;9.530;2023-12-20T05:09:17;5.90;99.60
2260;DHT22;333;48.800;9.530;2023-12-20T05:11:44;5.90;99.60
2260;DHT22;333;48.800;9.530;2023-12-20T05:14:12;5.90;99.60
2260;DHT22;333;48.800;9.530;2023-12-20T05:16:39;5.90;99.60
2260;DHT22;333;48.800;9.530;2023-12-20T05:19:06;5.90;99.60
2260;DHT22;333;48.800;9.530;2023-12-20T05:21:33;5.90;99.60
2260;DHT22;333;48.800;9.530;2023-12-20T05:24:00;5.90;99.60
2260;DHT22;333;48.800;9.530;2023-12-20T05:26:27;5.90;99.60
2260;DHT22;333;48.800;9.530;2023-12-20T05:28:55;5.80;99.60
2260;DHT22;333;48.800;9.530;2023-12-20T05:31:23;5.80;99.60
2260;DHT22;333;48.800;9.530;2023-12-20T05:33:50;5.90;99.60
2260;DHT22;333;48.800;9.530;2023-12-20T05:36:18;6.00;99.60
2260;DHT22;333;48.800;9.530;2023-12-20T05:38:45;5.90;99.60
2260;DHT22;333;48.800;9.530;2023-12-20T05:41:12;5.80;99.60
2260;DHT22;333;48.800;9.530;2023-12-20T05:43:40;5.80;99.60
2260;DHT22;333;48.800;9.530;2023-12-20T05:46:07;5.90;99.60
2260;DHT22;333;48.800;9.530;2023-12-20T05:48:35;5.90;99.60
2260;DHT22;333;48.800;9.530;2023-12-20T05:51:02;5.80;99.60
2260;DHT22;333;48.800;9.530;2023-12-20T05:53:30;5.90;99.60
2260;DHT22;333;48.800;9.530;2023-12-20T05:55:57;5.90;99.60
2260;DHT22;333;48.800;9.530;2023-12-20T05:58:24;5.90;99.60
2260;DHT22;333;48.800;9.530;2023-12-20T06:00:50;5.90;99.60
2260;DHT22;333;48.800;9.530;2023-12-20T06:03:17;5.90;99.60
2260;DHT22;333;48.800;9.530;2023-12-20T06:05:46;5.90;99.60
2260;DHT22;333;48.800;9.530;2023-12-20T06:08:13;5.90;99.60
2260;DHT22;333;48.800;9.530;2023-12-20T06:10:40;5.80;99.60
2260;DHT22;333;48.800;9.530;2023-12-20T06:13:07;5.90;99.60
2260;DHT22;333;48.800;9.530;2023-12-20T06:15:34;5.90;99.60
2260;DHT22;333;48.800;9.530;2023-12-20T06:18:01;5.90;99.60
2260;DHT22;333;48.800;9.530;2023-12-20T06:20:29;5.90;99.60
2260;DHT22;333;48.800;9.530;2023-12-20T06:22:57;5.90;99.60
2260;DHT22;333;48.800;9.530;2023-12-20T06:25:24;5.80;99.60
2260;DHT22;333;48.800;9.530;2023-12-20T06:27:51;5.80;99.60
2260;DHT22;333;48.800;9.530;2023-12-20T06:30:18;5.80;99.60
2260;DHT22;333;48.800;9.530;2023-12-20T06:32:45;5.80;99.60
2260;DHT22;333;48.800;9.530;2023-12-20T06:35:13;5.80;99.60
2260;DHT22;333;48.800;9.530;2023-12-20T06:37:40;5.80;99.60
2260;DHT22;333;48.800;9.530;2023-12-20T06:40:10;5.80;99.60
2260;DHT22;333;48.800;9.530;2023-12-20T06:42:37;5.80;99.60
2260;DHT22;333;48.800;9.530;2023-12-20T06:45:05;5.80;99.60
2260;DHT22;333;48.800;9.530;2023-12-20T06:47:32;5.80;99.60
2260;DHT22;333;48.800;9.530;2023-12-20T06:49:59;5.80;99.60
2260;DHT22;333;48.800;9.530;2023-12-20T06:52:26;5.90;99.60
2260;DHT22;333;48.800;9.530;2023-12-20T06:54:53;5.80;99.60
2260;DHT22;333;48.800;9.530;2023-12-20T06:57:22;5.80;99.60
2260;DHT22;333;48.800;9.530;2023-12-20T06:59:49;5.90;99.60
2260;DHT22;333;48.800;9.530;2023-12-20T07:02:17;5.80;99.60
2260;DHT22;333;48.800;9.530;2023-12-20T07:04:44;5.90;99.60
2260;DHT22;333;48.800;9.530;2023-12-20T07:07:13;5.90;99.60
2260;DHT22;333;48.800;9.530;2023-12-20T07:09:40;5.80;99.60
2260;DHT22;333;48.800;9.530;2023-12-20T07:12:08;5.80;99.60
2260;DHT22;333;48.800;9.530;2023-12-20T07:14:36;5.90;99.60
2260;DHT22;333;48.800;9.530;2023-12-20T07:17:21;5.90;99.60
2260;DHT22;333;48.800;9.530;2023-12-20T07:19:48;5.90;99.60
2260;DHT22;333;48.800;9.530;2023-12-20T07:22:15;5.90;99.60
2260;DHT22;333;48.800;9.530;2023-12-20T07:24:42;5.90;99.60
2260;DHT22;333;48.800;9.530;2023-12-20T07:27:09;5.80;99.60
2260;DHT22;333;48.800;9.530;2023-12-20T07:29:37;5.80;99.60
2260;DHT22;333;48.800;9.530;2023-12-20T07:32:05;5.80;99.60
2260;DHT22;333;48.800;9.530;2023-12-20T07:34:32;5.90;99.60
2260;DHT22;333;48.800;9.530;2023-12-20T07:36:59;5.90;99.60
2260;DHT22;333;48.800;9.530;2023-12-20T07:39:26;5.90;99.60
2260;DHT22;333;48.800;9.530;2023-12-20T07:41:53;5.90;99.60
2260;DHT22;333;48.800;9.530;2023-12-20T07:44:20;5.90;99.60
2260;DHT22;333;48.800;9.530;2023-12-20T07:46:49;5.90;99.60
2260;DHT22;333;48.800;9.530;2023-12-20T07:49:16;6.00;99.60
2260;DHT22;333;48.800;9.530;2023-12-20T07:51:43;6.00;99.60
2260;DHT22;333;48.800;9.530;2023-12-20T07:54:10;6.00;99.60
2260;DHT22;333;48.800;9.530;2023-12-20T07:56:37;6.00;99.60
2260;DHT22;333;48.800;9.530;2023-12-20T07:59:05;6.00;99.60
2260;DHT22;333;48.800;9.530;2023-12-20T08:01:32;6.00;99.60
2260;DHT22;333;48.800;9.530;2023-12-20T08:04:01;6.00;99.60
2260;DHT22;333;48.800;9.530;2023-12-20T08:06:28;6.00;99.60
2260;DHT22;333;48.800;9.530;2023-12-20T08:08:55;6.00;99.60
2260;DHT22;333;48.800;9.530;2023-12-20T08:11:22;6.00;99.60
2260;DHT22;333;48.800;9.530;2023-12-20T08:13:49;6.10;99.60
2260;DHT22;333;48.800;9.530;2023-12-20T08:16:16;6.10;99.60
2260;DHT22;333;48.800;9.530;2023-12-20T08:18:44;6.10;99.60
2260;DHT22;333;48.800;9.530;2023-12-20T08:21:12;6.10;99.60
2260;DHT22;333;48.800;9.530;2023-12-20T08:23:40;6.10;99.60
2260;DHT22;333;48.800;9.530;2023-12-20T08:26:07;6.10;99.60
2260;DHT22;333;48.800;9.530;2023-12-20T08:28:34;6.10;99.60
2260;DHT22;333;48.800;9.530;2023-12-20T08:31:03;6.10;99.60
2260;DHT22;333;48.800;9.530;2023-12-20T08:33:30;6.10;99.60
2260;DHT22;333;48.800;9.530;2023-12-20T08:35:57;6.10;99.60
2260;DHT22;333;48.800;9.530;2023-12-20T08:38:26;6.10;99.60
2260;DHT22;333;48.800;9.530;2023-12-20T08:40:53;6.10;99.60
2260;DHT22;333;48.800;9.530;2023-12-20T08:43:22;6.10;99.60
2260;DHT22;333;48.800;9.530;2023-12-20T08:45:49;6.10;99.60
2260;DHT22;333;48.800;9.530;2023-12-20T08:48:16;6.10;99.60
2260;DHT22;333;48.800;9.530;2023-12-20T08:50:43;6.10;99.60
2260;DHT22;333;48.800;9.530;2023-12-20T08:53:10;6.10;99.60
2260;DHT22;333;48.800;9.530;2023-12-20T08:55:39;6.00;99.60
2260;DHT22;333;48.800;9.530;2023-12-20T08:58:06;6.00;99.60
2260;DHT22;333;48.800;9.530;2023-12-20T09:00:33;5.90;99.60
2260;DHT22;333;48.800;9.530;2023-12-20T09:03:01;5.90;99.60
2260;DHT22;333;48.800;9.530;2023-12-20T09:05:28;5.80;99.60
2260;DHT22;333;48.800;9.530;2023-12-20T09:07:55;5.70;99.60
2260;DHT22;333;48.800;9.530;2023-12-20T09:10:22;5.70;99.60
2260;DHT22;333;48.800;9.530;2023-12-20T09:12:52;5.70;99.60
2260;DHT22;333;48.800;9.530;2023-12-20T09:15:22;5.60;99.60
2260;DHT22;333;48.800;9.530;2023-12-20T09:17:49;5.60;99.60
2260;DHT22;333;48.800;9.530;2023-12-20T09:20:16;5.60;99.60
2260;DHT22;333;48.800;9.530;2023-12-20T09:22:43;5.70;99.60
2260;DHT22;333;48.800;9.530;2023-12-20T09:25:10;5.60;99.60
2260;DHT22;333;48.800;9.530;2023-12-20T09:27:38;5.60;99.60
2260;DHT22;333;48.800;9.530;2023-12-20T09:30:07;5.70;99.60
2260;DHT22;333;48.800;9.530;2023-12-20T09:32:34;5.70;99.60
2260;DHT22;333;48.800;9.530;2023-12-20T09:35:01;5.70;99.60
2260;DHT22;333;48.800;9.530;2023-12-20T09:37:28;5.70;99.60
2260;DHT22;333;48.800;9.530;2023-12-20T09:39:55;5.70;99.60
2260;DHT22;333;48.800;9.530;2023-12-20T09:42:29;5.70;99.60
2260;DHT22;333;48.800;9.530;2023-12-20T09:45:02;5.80;99.60
2260;DHT22;333;48.800;9.530;2023-12-20T09:47:32;5.80;99.60
2260;DHT22;333;48.800;9.530;2023-12-20T09:49:59;5.90;99.60
2260;DHT22;333;48.800;9.530;2023-12-20T09:52:26;5.90;99.60
2260;DHT22;333;48.800;9.530;2023-12-20T09:54:53;5.90;99.60
2260;DHT22;333;48.800;9.530;2023-12-20T09:57:22;6.00;99.60
2260;DHT22;333;48.800;9.530;2023-12-20T09:59:49;6.00;99.60
2260;DHT22;333;48.800;9.530;2023-12-20T10:02:20;6.00;99.60
2260;DHT22;333;48.800;9.530;2023-12-20T10:04:50;6.10;99.60
2260;DHT22;333;48.800;9.530;2023-12-20T10:07:17;6.20;99.60
2260;DHT22;333;48.800;9.530;2023-12-20T10:09:44;6.30;99.60
2260;DHT22;333;48.800;9.530;2023-12-20T10:12:12;6.50;99.60
2260;DHT22;333;48.800;9.530;2023-12-20T10:14:39;6.60;99.60
2260;DHT22;333;48.800;9.530;2023-12-20T10:17:06;6.80;99.60
2260;DHT22;333;48.800;9.530;2023-12-20T10:19:33;6.90;99.60
2260;DHT22;333;48.800;9.530;2023-12-20T10:22:04;7.10;99.60
2260;DHT22;333;48.800;9.530;2023-12-20T10:24:31;7.20;99.60
2260;DHT22;333;48.800;9.530;2023-12-20T10:27:02;7.20;99.60
2260;DHT22;333;48.800;9.530;2023-12-20T10:29:32;7.20;99.60
2260;DHT22;333;48.800;9.530;2023-12-20T10:32:00;7.30;99.60
2260;DHT22;333;48.800;9.530;2023-12-20T10:34:27;7.30;99.60
2260;DHT22;333;48.800;9.530;2023-12-20T10:36:54;7.30;99.60
2260;DHT22;333;48.800;9.530;2023-12-20T10:39:23;7.50;99.60
2260;DHT22;333;48.800;9.530;2023-12-20T10:41:50;7.70;99.60
2260;DHT22;333;48.800;9.530;2023-12-20T10:44:17;7.40;99.60
2260;DHT22;333;48.800;9.530;2023-12-20T10:46:44;7.40;99.60
2260;DHT22;333;48.800;9.530;2023-12-20T10:49:17;7.50;99.60
2260;DHT22;333;48.800;9.530;2023-12-20T10:51:47;7.70;99.60
2260;DHT22;333;48.800;9.530;2023-12-20T10:54:15;7.80;99.60
2260;DHT22;333;48.800;9.530;2023-12-20T10:56:44;8.00;99.60
2260;DHT22;333;48.800;9.530;2023-12-20T10:59:11;8.00;99.60
2260;DHT22;333;48.800;9.530;2023-12-20T11:01:40;8.10;99.60
2260;DHT22;333;48.800;9.530;2023-12-20T11:04:10;8.10;99.60
2260;DHT22;333;48.800;9.530;2023-12-20T11:06:47;8.00;99.60
2260;DHT22;333;48.800;9.530;2023-12-20T11:09:22;8.10;99.60
2260;DHT22;333;48.800;9.530;2023-12-20T11:12:01;8.20;99.60
2260;DHT22;333;48.800;9.530;2023-12-20T11:14:38;8.10;99.60
2260;DHT22;333;48.800;9.530;2023-12-20T11:17:08;8.00;99.60
2260;DHT22;333;48.800;9.530;2023-12-20T11:19:43;7.80;99.60
2260;DHT22;333;48.800;9.530;2023-12-20T11:22:31;8.20;99.60
2260;DHT22;333;48.800;9.530;2023-12-20T11:25:03;8.30;99.60
2260;DHT22;333;48.800;9.530;2023-12-20T11:27:32;7.90;99.60
2260;DHT22;333;48.800;9.530;2023-12-20T11:29:59;7.60;99.60
2260;DHT22;333;48.800;9.530;2023-12-20T11:32:29;7.30;99.60
2260;DHT22;333;48.800;9.530;2023-12-20T11:34:57;7.10;99.60
2260;DHT22;333;48.800;9.530;2023-12-20T11:37:29;7.10;99.60
2260;DHT22;333;48.800;9.530;2023-12-20T11:40:01;7.00;99.60
2260;DHT22;333;48.800;9.530;2023-12-20T11:42:38;6.90;99.60
2260;DHT22;333;48.800;9.530;2023-12-20T11:45:07;6.90;99.60
2260;DHT22;333;48.800;9.530;2023-12-20T11:47:35;7.00;99.60
2260;DHT22;333;48.800;9.530;2023-12-20T11:50:02;6.90;99.60
2260;DHT22;333;48.800;9.530;2023-12-20T11:52:30;6.90;99.60
2260;DHT22;333;48.800;9.530;2023-12-20T11:54:57;6.80;99.60
2260;DHT22;333;48.800;9.530;2023-12-20T11:57:25;6.80;99.60
2260;DHT22;333;48.800;9.530;2023-12-20T11:59:53;6.90;99.60
2260;DHT22;333;48.800;9.530;2023-12-20T12:02:20;6.90;99.60
2260;DHT22;333;48.800;9.530;2023-12-20T12:04:49;6.90;99.60
2260;DHT22;333;48.800;9.530;2023-12-20T12:07:17;6.90;99.60
2260;DHT22;333;48.800;9.530;2023-12-20T12:09:45;6.80;99.60
2260;DHT22;333;48.800;9.530;2023-12-20T12:12:13;6.80;99.60
2260;DHT22;333;48.800;9.530;2023-12-20T12:14:41;6.80;99.60
2260;DHT22;333;48.800;9.530;2023-12-20T12:17:11;6.70;99.60
2260;DHT22;333;48.800;9.530;2023-12-20T12:19:39;6.70;99.60
2260;DHT22;333;48.800;9.530;2023-12-20T12:22:07;6.70;99.60
2260;DHT22;333;48.800;9.530;2023-12-20T12:24:38;6.60;99.60
2260;DHT22;333;48.800;9.530;2023-12-20T12:27:06;6.60;99.60
2260;DHT22;333;48.800;9.530;2023-12-20T12:29:33;6.60;99.60
2260;DHT22;333;48.800;9.530;2023-12-20T12:32:00;6.60;99.60
2260;DHT22;333;48.800;9.530;2023-12-20T12:34:29;6.60;99.60
2260;DHT22;333;48.800;9.530;2023-12-20T12:36:57;6.60;99.60
2260;DHT22;333;48.800;9.530;2023-12-20T12:39:24;6.80;99.60
2260;DHT22;333;48.800;9.530;2023-12-20T12:41:52;6.80;99.60
2260;DHT22;333;48.800;9.530;2023-12-20T12:44:20;6.80;99.60
2260;DHT22;333;48.800;9.530;2023-12-20T12:46:49;6.90;99.60
2260;DHT22;333;48.800;9.530;2023-12-20T12:49:16;6.90;99.60
2260;DHT22;333;48.800;9.530;2023-12-20T12:51:45;7.00;99.60
2260;DHT22;333;48.800;9.530;2023-12-20T12:54:31;7.00;99.60
2260;DHT22;333;48.800;9.530;2023-12-20T12:56:58;7.10;99.60
2260;DHT22;333;48.800;9.530;2023-12-20T12:59:25;7.20;99.60
2260;DHT22;333;48.800;9.530;2023-12-20T13:01:52;7.30;99.60
2260;DHT22;333;48.800;9.530;2023-12-20T13:04:20;7.30;99.60
2260;DHT22;333;48.800;9.530;2023-12-20T13:06:49;7.40;99.60
2260;DHT22;333;48.800;9.530;2023-12-20T13:09:16;7.40;99.60
2260;DHT22;333;48.800;9.530;2023-12-20T13:11:44;7.30;99.60
2260;DHT22;333;48.800;9.530;2023-12-20T13:14:11;7.20;99.60
2260;DHT22;333;48.800;9.530;2023-12-20T13:16:41;7.10;99.60
2260;DHT22;333;48.800;9.530;2023-12-20T13:19:08;7.10;99.60
2260;DHT22;333;48.800;9.530;2023-12-20T13:21:35;7.10;99.60
2260;DHT22;333;48.800;9.530;2023-12-20T13:24:04;7.00;99.60
2260;DHT22;333;48.800;9.530;2023-12-20T13:26:32;7.00;99.60
2260;DHT22;333;48.800;9.530;2023-12-20T13:29:01;7.00;99.60
2260;DHT22;333;48.800;9.530;2023-12-20T13:31:30;7.00;99.60
2260;DHT22;333;48.800;9.530;2023-12-20T13:33:56;7.00;99.60
2260;DHT22;333;48.800;9.530;2023-12-20T13:36:23;7.00;99.60
2260;DHT22;333;48.800;9.530;2023-12-20T13:38:50;6.90;99.60
2260;DHT22;333;48.800;9.530;2023-12-20T13:41:20;6.90;99.60
2260;DHT22;333;48.800;9.530;2023-12-20T13:43:47;6.90;99.60
2260;DHT22;333;48.800;9.530;2023-12-20T13:46:14;7.00;99.60
2260;DHT22;333;48.800;9.530;2023-12-20T13:48:41;7.00;99.60
2260;DHT22;333;48.800;9.530;2023-12-20T13:51:08;7.00;99.60
2260;DHT22;333;48.800;9.530;2023-12-20T13:53:35;7.00;99.60
2260;DHT22;333;48.800;9.530;2023-12-20T13:56:04;6.90;99.60
2260;DHT22;333;48.800;9.530;2023-12-20T13:58:33;6.90;99.60
2260;DHT22;333;48.800;9.530;2023-12-20T14:01:00;7.00;99.60
2260;DHT22;333;48.800;9.530;2023-12-20T14:03:27;7.00;99.60
2260;DHT22;333;48.800;9.530;2023-12-20T14:05:54;6.90;99.60
2260;DHT22;333;48.800;9.530;2023-12-20T14:08:21;6.90;99.60
2260;DHT22;333;48.800;9.530;2023-12-20T14:10:49;6.90;99.60
2260;DHT22;333;48.800;9.530;2023-12-20T14:13:16;6.90;99.60
2260;DHT22;333;48.800;9.530;2023-12-20T14:15:45;6.90;99.60
2260;DHT22;333;48.800;9.530;2023-12-20T14:18:12;6.90;99.60
2260;DHT22;333;48.800;9.530;2023-12-20T14:20:40;6.90;99.60
2260;DHT22;333;48.800;9.530;2023-12-20T14:23:12;6.80;99.60
2260;DHT22;333;48.800;9.530;2023-12-20T14:25:41;6.60;99.60
2260;DHT22;333;48.800;9.530;2023-12-20T14:28:08;6.50;99.60
2260;DHT22;333;48.800;9.530;2023-12-20T14:30:35;6.50;99.60
2260;DHT22;333;48.800;9.530;2023-12-20T14:33:05;6.50;99.60
2260;DHT22;333;48.800;9.530;2023-12-20T14:35:32;6.50;99.60
2260;DHT22;333;48.800;9.530;2023-12-20T14:37:59;6.50;99.60
2260;DHT22;333;48.800;9.530;2023-12-20T14:40:26;6.50;99.60
2260;DHT22;333;48.800;9.530;2023-12-20T14:42:53;6.50;99.60
2260;DHT22;333;48.800;9.530;2023-12-20T14:45:21;6.50;99.60
2260;DHT22;333;48.800;9.530;2023-12-20T14:47:48;6.40;99.60
2260;DHT22;333;48.800;9.530;2023-12-20T14:50:16;6.40;99.60
2260;DHT22;333;48.800;9.530;2023-12-20T14:52:44;6.40;99.60
2260;DHT22;333;48.800;9.530;2023-12-20T14:55:11;6.30;99.60
2260;DHT22;333;48.800;9.530;2023-12-20T14:57:38;6.30;99.60
2260;DHT22;333;48.800;9.530;2023-12-20T15:00:06;6.30;99.60
2260;DHT22;333;48.800;9.530;2023-12-20T15:02:34;6.30;99.60
2260;DHT22;333;48.800;9.530;2023-12-20T15:05:01;6.30;99.60
2260;DHT22;333;48.800;9.530;2023-12-20T15:07:29;6.20;99.60
2260;DHT22;333;48.800;9.530;2023-12-20T15:09:56;6.20;99.60
2260;DHT22;333;48.800;9.530;2023-12-20T15:12:23;6.20;99.60
2260;DHT22;333;48.800;9.530;2023-12-20T15:14:50;6.10;99.60
2260;DHT22;333;48.800;9.530;2023-12-20T15:17:17;6.00;99.60
2260;DHT22;333;48.800;9.530;2023-12-20T15:19:44;6.00;99.60
2260;DHT22;333;48.800;9.530;2023-12-20T15:22:11;5.90;99.60
2260;DHT22;333;48.800;9.530;2023-12-20T15:24:40;5.90;99.60
2260;DHT22;333;48.800;9.530;2023-12-20T15:27:08;5.80;99.60
2260;DHT22;333;48.800;9.530;2023-12-20T15:29:35;5.70;99.60
2260;DHT22;333;48.800;9.530;2023-12-20T15:32:03;5.60;99.60
2260;DHT22;333;48.800;9.530;2023-12-20T15:34:30;5.60;99.60
2260;DHT22;333;48.800;9.530;2023-12-20T15:36:57;5.60;99.60
2260;DHT22;333;48.800;9.530;2023-12-20T15:39:24;5.60;99.60
2260;DHT22;333;48.800;9.530;2023-12-20T15:41:53;5.60;99.60
2260;DHT22;333;48.800;9.530;2023-12-20T15:44:20;5.60;99.60
2260;DHT22;333;48.800;9.530;2023-12-20T15:46:46;5.60;99.60
2260;DHT22;333;48.800;9.530;2023-12-20T15:49:13;5.60;99.60
2260;DHT22;333;48.800;9.530;2023-12-20T15:51:43;5.50;99.60
2260;DHT22;333;48.800;9.530;2023-12-20T15:54:11;5.50;99.60
2260;DHT22;333;48.800;9.530;2023-12-20T15:56:37;5.50;99.60
2260;DHT22;333;48.800;9.530;2023-12-20T15:59:08;5.50;99.60
2260;DHT22;333;48.800;9.530;2023-12-20T16:01:35;5.60;99.60
2260;DHT22;333;48.800;9.530;2023-12-20T16:04:03;5.50;99.60
2260;DHT22;333;48.800;9.530;2023-12-20T16:06:30;5.50;99.60
2260;DHT22;333;48.800;9.530;2023-12-20T16:08:57;5.50;99.60
2260;DHT22;333;48.800;9.530;2023-12-20T16:11:24;5.50;99.60
2260;DHT22;333;48.800;9.530;2023-12-20T16:13:51;5.50;99.60
2260;DHT22;333;48.800;9.530;2023-12-20T16:16:19;5.60;99.60
2260;DHT22;333;48.800;9.530;2023-12-20T16:18:46;5.60;99.60
2260;DHT22;333;48.800;9.530;2023-12-20T16:21:13;5.60;99.60
2260;DHT22;333;48.800;9.530;2023-12-20T16:23:40;5.60;99.60
2260;DHT22;333;48.800;9.530;2023-12-20T16:26:07;5.60;99.60
2260;DHT22;333;48.800;9.530;2023-12-20T16:28:34;5.60;99.60
2260;DHT22;333;48.800;9.530;2023-12-20T16:31:01;5.50;99.60
2260;DHT22;333;48.800;9.530;2023-12-20T16:33:30;5.50;99.60
2260;DHT22;333;48.800;9.530;2023-12-20T16:35:57;5.50;99.60
2260;DHT22;333;48.800;9.530;2023-12-20T16:38:24;5.60;99.60